KDTL/DTL METAR and TAF weather

Enter ICAO airport designator
Station Type Date Time Source
KDTL METAR 2018/10/22 16:15 UTC NOAA

KDTL 221615Z AUTO 32015KT 10SM CLR 07/M01 A3011 RMK AO2


Station Type Date Time Source
KDTL Decoded METAR 2018/10/22 16:15 UTC NOAA

Detroit Lakes, Detroit Lakes Airport-Wething Field, MN, United States (KDTL) 46-50N 095-53W
Oct 22, 2018 - 12:15 PM EDT / 2018.10.22 1615 UTC
Wind: from the NW (320 degrees) at 17 MPH (15 KT):0
Visibility: 10 mile(s):0
Sky conditions: clear
Temperature: 44 F (7 C)
Dew Point: 30 F (-1 C)
Relative Humidity: 56%
Pressure (altimeter): 30.11 in. Hg (1019 hPa)
ob: KDTL 221615Z AUTO 32015KT 10SM CLR 07/M01 A3011 RMK AO2
cycle: 16

Station Type Date Time Source
KDTL TAF UTC NOAA

Error!


Example: see airport list